<?xml version="1.0" encoding="UTF-8" standalone="no" ?>
<gpx xmlns="http://www.topografix.com/GPX/1/1" xmlns:xsi="http://www.w3.org/2001/XMLSchema-instance" xsi:schemaLocation="http://www.topografix.com/GPX/1/1 http://www.topografix.com/GPX/1/1/gpx.xsd" version="1.1" creator="VisuGPX - https://www.visugpx.com">
  <metadata>
    <name>Feugarolles Brazalem</name>
  </metadata>
  <trk>
    <name><![CDATA[2025 09 18 Brazalem Pierre]]></name>
    <extensions>
      <line xmlns="http://www.topografix.com/GPX/gpx_style/0/2">
        <color>0000FF</color>
        <width>4</width>
      </line>
    </extensions>
    <trkseg>
      <trkpt lat="44.20284" lon="0.37181">
        <ele>94</ele>
        <time>2025-09-18T07:18:39.504Z</time>
      </trkpt>
      <trkpt lat="44.20265" lon="0.37258">
        <ele>89</ele>
        <time>2025-09-18T07:19:59.504Z</time>
      </trkpt>
      <trkpt lat="44.20269" lon="0.37273">
        <ele>95</ele>
        <time>2025-09-18T07:20:15.504Z</time>
      </trkpt>
      <trkpt lat="44.20268" lon="0.37299">
        <ele>97</ele>
        <time>2025-09-18T07:20:31.504Z</time>
      </trkpt>
      <trkpt lat="44.20261" lon="0.37335">
        <ele>97</ele>
        <time>2025-09-18T07:20:55.504Z</time>
      </trkpt>
      <trkpt lat="44.20266" lon="0.37343">
        <ele>98</ele>
        <time>2025-09-18T07:21:03.504Z</time>
      </trkpt>
      <trkpt lat="44.20302" lon="0.37361">
        <ele>96</ele>
        <time>2025-09-18T07:21:35.504Z</time>
      </trkpt>
      <trkpt lat="44.20307" lon="0.37364">
        <ele>98</ele>
        <time>2025-09-18T07:22:15.504Z</time>
      </trkpt>
      <trkpt lat="44.20311" lon="0.37366">
        <ele>98</ele>
        <time>2025-09-18T07:22:47.504Z</time>
      </trkpt>
      <trkpt lat="44.20366" lon="0.37394">
        <ele>104</ele>
        <time>2025-09-18T07:23:51.504Z</time>
      </trkpt>
      <trkpt lat="44.20377" lon="0.37403">
        <ele>107</ele>
        <time>2025-09-18T07:24:23.504Z</time>
      </trkpt>
      <trkpt lat="44.20564" lon="0.37507">
        <ele>142</ele>
        <time>2025-09-18T07:28:55.504Z</time>
      </trkpt>
      <trkpt lat="44.20575" lon="0.37509">
        <ele>141</ele>
        <time>2025-09-18T07:32:39.504Z</time>
      </trkpt>
      <trkpt lat="44.20625" lon="0.37526">
        <ele>142</ele>
        <time>2025-09-18T07:33:27.504Z</time>
      </trkpt>
      <trkpt lat="44.20659" lon="0.37552">
        <ele>143</ele>
        <time>2025-09-18T07:33:59.504Z</time>
      </trkpt>
      <trkpt lat="44.20741" lon="0.37655">
        <ele>141</ele>
        <time>2025-09-18T07:35:35.504Z</time>
      </trkpt>
      <trkpt lat="44.20773" lon="0.37684">
        <ele>144</ele>
        <time>2025-09-18T07:36:07.504Z</time>
      </trkpt>
      <trkpt lat="44.20825" lon="0.37716">
        <ele>142</ele>
        <time>2025-09-18T07:37:11.504Z</time>
      </trkpt>
      <trkpt lat="44.20879" lon="0.37729">
        <ele>139</ele>
        <time>2025-09-18T07:38:07.504Z</time>
      </trkpt>
      <trkpt lat="44.20899" lon="0.37709">
        <ele>133</ele>
        <time>2025-09-18T07:38:35.504Z</time>
      </trkpt>
      <trkpt lat="44.2091" lon="0.37709">
        <ele>131</ele>
        <time>2025-09-18T07:38:43.504Z</time>
      </trkpt>
      <trkpt lat="44.20933" lon="0.37721">
        <ele>116</ele>
        <time>2025-09-18T07:39:15.504Z</time>
      </trkpt>
      <trkpt lat="44.20942" lon="0.37727">
        <ele>120</ele>
        <time>2025-09-18T07:39:31.504Z</time>
      </trkpt>
      <trkpt lat="44.20965" lon="0.37741">
        <ele>116</ele>
        <time>2025-09-18T07:39:55.504Z</time>
      </trkpt>
      <trkpt lat="44.20983" lon="0.37731">
        <ele>116</ele>
        <time>2025-09-18T07:40:35.504Z</time>
      </trkpt>
      <trkpt lat="44.20998" lon="0.37719">
        <ele>115</ele>
        <time>2025-09-18T07:41:39.504Z</time>
      </trkpt>
      <trkpt lat="44.21005" lon="0.37698">
        <ele>114</ele>
        <time>2025-09-18T07:42:11.504Z</time>
      </trkpt>
      <trkpt lat="44.21031" lon="0.37667">
        <ele>114</ele>
        <time>2025-09-18T07:42:43.504Z</time>
      </trkpt>
      <trkpt lat="44.21045" lon="0.37654">
        <ele>117</ele>
        <time>2025-09-18T07:42:59.504Z</time>
      </trkpt>
      <trkpt lat="44.21072" lon="0.37619">
        <ele>112</ele>
        <time>2025-09-18T07:43:31.504Z</time>
      </trkpt>
      <trkpt lat="44.21098" lon="0.37597">
        <ele>113</ele>
        <time>2025-09-18T07:44:03.504Z</time>
      </trkpt>
      <trkpt lat="44.21108" lon="0.37595">
        <ele>114</ele>
        <time>2025-09-18T07:44:11.504Z</time>
      </trkpt>
      <trkpt lat="44.21147" lon="0.3756">
        <ele>107</ele>
        <time>2025-09-18T07:45:15.504Z</time>
      </trkpt>
      <trkpt lat="44.2116" lon="0.37554">
        <ele>104</ele>
        <time>2025-09-18T07:45:35.504Z</time>
      </trkpt>
      <trkpt lat="44.21165" lon="0.37546">
        <ele>104</ele>
        <time>2025-09-18T07:45:43.504Z</time>
      </trkpt>
      <trkpt lat="44.21174" lon="0.37542">
        <ele>104</ele>
        <time>2025-09-18T07:45:51.504Z</time>
      </trkpt>
      <trkpt lat="44.21228" lon="0.37571">
        <ele>101</ele>
        <time>2025-09-18T07:46:39.504Z</time>
      </trkpt>
      <trkpt lat="44.2124" lon="0.3758">
        <ele>100</ele>
        <time>2025-09-18T07:50:23.504Z</time>
      </trkpt>
      <trkpt lat="44.21259" lon="0.37597">
        <ele>96</ele>
        <time>2025-09-18T07:50:55.504Z</time>
      </trkpt>
      <trkpt lat="44.21276" lon="0.37607">
        <ele>103</ele>
        <time>2025-09-18T07:51:11.504Z</time>
      </trkpt>
      <trkpt lat="44.21283" lon="0.37608">
        <ele>103</ele>
        <time>2025-09-18T07:51:19.504Z</time>
      </trkpt>
      <trkpt lat="44.21295" lon="0.37598">
        <ele>104</ele>
        <time>2025-09-18T07:51:35.504Z</time>
      </trkpt>
      <trkpt lat="44.21312" lon="0.37559">
        <ele>103</ele>
        <time>2025-09-18T07:52:07.504Z</time>
      </trkpt>
      <trkpt lat="44.2136" lon="0.37502">
        <ele>107</ele>
        <time>2025-09-18T07:53:11.504Z</time>
      </trkpt>
      <trkpt lat="44.21373" lon="0.37491">
        <ele>106</ele>
        <time>2025-09-18T07:53:27.504Z</time>
      </trkpt>
      <trkpt lat="44.21389" lon="0.37489">
        <ele>105</ele>
        <time>2025-09-18T07:53:43.504Z</time>
      </trkpt>
      <trkpt lat="44.2144" lon="0.37451">
        <ele>106</ele>
        <time>2025-09-18T07:54:47.504Z</time>
      </trkpt>
      <trkpt lat="44.21505" lon="0.3745">
        <ele>98</ele>
        <time>2025-09-18T07:55:51.504Z</time>
      </trkpt>
      <trkpt lat="44.21519" lon="0.37447">
        <ele>90</ele>
        <time>2025-09-18T07:56:07.504Z</time>
      </trkpt>
      <trkpt lat="44.21542" lon="0.37478">
        <ele>87</ele>
        <time>2025-09-18T07:57:43.504Z</time>
      </trkpt>
      <trkpt lat="44.21553" lon="0.37486">
        <ele>87</ele>
        <time>2025-09-18T07:57:59.504Z</time>
      </trkpt>
      <trkpt lat="44.21567" lon="0.37488">
        <ele>87</ele>
        <time>2025-09-18T07:58:15.504Z</time>
      </trkpt>
      <trkpt lat="44.21575" lon="0.37484">
        <ele>81</ele>
        <time>2025-09-18T07:58:31.504Z</time>
      </trkpt>
      <trkpt lat="44.21579" lon="0.37458">
        <ele>74</ele>
        <time>2025-09-18T07:59:03.504Z</time>
      </trkpt>
      <trkpt lat="44.21587" lon="0.3745">
        <ele>74</ele>
        <time>2025-09-18T07:59:19.504Z</time>
      </trkpt>
      <trkpt lat="44.21606" lon="0.37444">
        <ele>71</ele>
        <time>2025-09-18T07:59:43.504Z</time>
      </trkpt>
      <trkpt lat="44.21609" lon="0.37436">
        <ele>56</ele>
        <time>2025-09-18T08:00:15.504Z</time>
      </trkpt>
      <trkpt lat="44.21619" lon="0.37439">
        <ele>62</ele>
        <time>2025-09-18T08:00:47.504Z</time>
      </trkpt>
      <trkpt lat="44.21661" lon="0.37425">
        <ele>59</ele>
        <time>2025-09-18T08:01:35.504Z</time>
      </trkpt>
      <trkpt lat="44.21667" lon="0.37428">
        <ele>49</ele>
        <time>2025-09-18T08:01:59.504Z</time>
      </trkpt>
      <trkpt lat="44.21676" lon="0.37435">
        <ele>45</ele>
        <time>2025-09-18T08:02:15.504Z</time>
      </trkpt>
      <trkpt lat="44.21709" lon="0.37445">
        <ele>46</ele>
        <time>2025-09-18T08:02:47.504Z</time>
      </trkpt>
      <trkpt lat="44.21716" lon="0.37436">
        <ele>44</ele>
        <time>2025-09-18T08:04:23.504Z</time>
      </trkpt>
      <trkpt lat="44.21719" lon="0.3742">
        <ele>41</ele>
        <time>2025-09-18T08:07:03.504Z</time>
      </trkpt>
      <trkpt lat="44.21718" lon="0.37394">
        <ele>46</ele>
        <time>2025-09-18T08:08:07.504Z</time>
      </trkpt>
      <trkpt lat="44.21705" lon="0.37376">
        <ele>43</ele>
        <time>2025-09-18T08:08:23.504Z</time>
      </trkpt>
      <trkpt lat="44.21684" lon="0.37308">
        <ele>53</ele>
        <time>2025-09-18T08:09:11.504Z</time>
      </trkpt>
      <trkpt lat="44.21682" lon="0.37231">
        <ele>61</ele>
        <time>2025-09-18T08:10:19.504Z</time>
      </trkpt>
      <trkpt lat="44.21678" lon="0.37226">
        <ele>61</ele>
        <time>2025-09-18T08:10:27.504Z</time>
      </trkpt>
      <trkpt lat="44.2168" lon="0.37197">
        <ele>59</ele>
        <time>2025-09-18T08:10:59.504Z</time>
      </trkpt>
      <trkpt lat="44.21686" lon="0.37177">
        <ele>66</ele>
        <time>2025-09-18T08:11:31.504Z</time>
      </trkpt>
      <trkpt lat="44.21689" lon="0.37126">
        <ele>75</ele>
        <time>2025-09-18T08:12:35.504Z</time>
      </trkpt>
      <trkpt lat="44.21684" lon="0.37081">
        <ele>81</ele>
        <time>2025-09-18T08:13:23.504Z</time>
      </trkpt>
      <trkpt lat="44.21662" lon="0.37058">
        <ele>83</ele>
        <time>2025-09-18T08:13:55.504Z</time>
      </trkpt>
      <trkpt lat="44.21652" lon="0.37039">
        <ele>84</ele>
        <time>2025-09-18T08:14:11.504Z</time>
      </trkpt>
      <trkpt lat="44.21651" lon="0.37029">
        <ele>85</ele>
        <time>2025-09-18T08:14:19.504Z</time>
      </trkpt>
      <trkpt lat="44.21628" lon="0.36977">
        <ele>93</ele>
        <time>2025-09-18T08:15:07.504Z</time>
      </trkpt>
      <trkpt lat="44.21591" lon="0.36947">
        <ele>96</ele>
        <time>2025-09-18T08:16:03.504Z</time>
      </trkpt>
      <trkpt lat="44.2158" lon="0.36926">
        <ele>96</ele>
        <time>2025-09-18T08:16:19.504Z</time>
      </trkpt>
      <trkpt lat="44.21568" lon="0.36913">
        <ele>94</ele>
        <time>2025-09-18T08:16:35.505Z</time>
      </trkpt>
      <trkpt lat="44.21549" lon="0.36875">
        <ele>93</ele>
        <time>2025-09-18T08:17:07.504Z</time>
      </trkpt>
      <trkpt lat="44.21536" lon="0.36829">
        <ele>99</ele>
        <time>2025-09-18T08:17:39.504Z</time>
      </trkpt>
      <trkpt lat="44.21532" lon="0.36828">
        <ele>100</ele>
        <time>2025-09-18T08:17:43.504Z</time>
      </trkpt>
      <trkpt lat="44.21513" lon="0.36757">
        <ele>96</ele>
        <time>2025-09-18T08:18:31.504Z</time>
      </trkpt>
      <trkpt lat="44.21502" lon="0.36748">
        <ele>96</ele>
        <time>2025-09-18T08:18:39.504Z</time>
      </trkpt>
      <trkpt lat="44.21495" lon="0.36735">
        <ele>97</ele>
        <time>2025-09-18T08:18:55.504Z</time>
      </trkpt>
      <trkpt lat="44.2148" lon="0.3673">
        <ele>97</ele>
        <time>2025-09-18T08:19:11.505Z</time>
      </trkpt>
      <trkpt lat="44.21471" lon="0.36733">
        <ele>98</ele>
        <time>2025-09-18T08:19:19.504Z</time>
      </trkpt>
      <trkpt lat="44.21462" lon="0.36731">
        <ele>98</ele>
        <time>2025-09-18T08:19:27.504Z</time>
      </trkpt>
      <trkpt lat="44.21433" lon="0.36715">
        <ele>98</ele>
        <time>2025-09-18T08:19:51.504Z</time>
      </trkpt>
      <trkpt lat="44.21403" lon="0.3669">
        <ele>97</ele>
        <time>2025-09-18T08:20:23.504Z</time>
      </trkpt>
      <trkpt lat="44.21378" lon="0.36658">
        <ele>97</ele>
        <time>2025-09-18T08:20:55.504Z</time>
      </trkpt>
      <trkpt lat="44.21365" lon="0.36635">
        <ele>92</ele>
        <time>2025-09-18T08:21:15.504Z</time>
      </trkpt>
      <trkpt lat="44.21353" lon="0.36621">
        <ele>90</ele>
        <time>2025-09-18T08:21:31.504Z</time>
      </trkpt>
      <trkpt lat="44.2135" lon="0.36609">
        <ele>88</ele>
        <time>2025-09-18T08:21:39.504Z</time>
      </trkpt>
      <trkpt lat="44.21356" lon="0.36571">
        <ele>91</ele>
        <time>2025-09-18T08:22:03.504Z</time>
      </trkpt>
      <trkpt lat="44.21339" lon="0.36557">
        <ele>101</ele>
        <time>2025-09-18T08:22:27.504Z</time>
      </trkpt>
      <trkpt lat="44.2133" lon="0.3654">
        <ele>103</ele>
        <time>2025-09-18T08:22:43.504Z</time>
      </trkpt>
      <trkpt lat="44.21313" lon="0.36524">
        <ele>94</ele>
        <time>2025-09-18T08:23:07.504Z</time>
      </trkpt>
      <trkpt lat="44.21294" lon="0.36536">
        <ele>96</ele>
        <time>2025-09-18T08:23:35.504Z</time>
      </trkpt>
      <trkpt lat="44.21275" lon="0.36554">
        <ele>94</ele>
        <time>2025-09-18T08:24:03.504Z</time>
      </trkpt>
      <trkpt lat="44.21265" lon="0.36547">
        <ele>95</ele>
        <time>2025-09-18T08:24:11.504Z</time>
      </trkpt>
      <trkpt lat="44.21219" lon="0.36472">
        <ele>106</ele>
        <time>2025-09-18T08:25:31.504Z</time>
      </trkpt>
      <trkpt lat="44.21198" lon="0.36407">
        <ele>107</ele>
        <time>2025-09-18T08:26:35.504Z</time>
      </trkpt>
      <trkpt lat="44.21197" lon="0.3636">
        <ele>111</ele>
        <time>2025-09-18T08:27:19.504Z</time>
      </trkpt>
      <trkpt lat="44.21189" lon="0.36361">
        <ele>111</ele>
        <time>2025-09-18T08:27:27.504Z</time>
      </trkpt>
      <trkpt lat="44.21176" lon="0.36357">
        <ele>108</ele>
        <time>2025-09-18T08:28:07.504Z</time>
      </trkpt>
      <trkpt lat="44.21174" lon="0.36349">
        <ele>110</ele>
        <time>2025-09-18T08:28:23.504Z</time>
      </trkpt>
      <trkpt lat="44.21167" lon="0.36336">
        <ele>112</ele>
        <time>2025-09-18T08:31:19.504Z</time>
      </trkpt>
      <trkpt lat="44.21154" lon="0.36168">
        <ele>111</ele>
        <time>2025-09-18T08:33:27.504Z</time>
      </trkpt>
      <trkpt lat="44.21146" lon="0.36122">
        <ele>111</ele>
        <time>2025-09-18T08:33:59.504Z</time>
      </trkpt>
      <trkpt lat="44.21146" lon="0.36097">
        <ele>114</ele>
        <time>2025-09-18T08:34:15.504Z</time>
      </trkpt>
      <trkpt lat="44.21135" lon="0.36088">
        <ele>115</ele>
        <time>2025-09-18T08:34:31.504Z</time>
      </trkpt>
      <trkpt lat="44.21055" lon="0.36045">
        <ele>113</ele>
        <time>2025-09-18T08:35:51.504Z</time>
      </trkpt>
      <trkpt lat="44.21021" lon="0.36032">
        <ele>116</ele>
        <time>2025-09-18T08:36:23.504Z</time>
      </trkpt>
      <trkpt lat="44.20997" lon="0.36029">
        <ele>117</ele>
        <time>2025-09-18T08:36:47.504Z</time>
      </trkpt>
      <trkpt lat="44.20964" lon="0.36015">
        <ele>114</ele>
        <time>2025-09-18T08:37:19.504Z</time>
      </trkpt>
      <trkpt lat="44.20898" lon="0.35974">
        <ele>119</ele>
        <time>2025-09-18T08:38:23.504Z</time>
      </trkpt>
      <trkpt lat="44.20708" lon="0.35841">
        <ele>130</ele>
        <time>2025-09-18T08:41:35.504Z</time>
      </trkpt>
      <trkpt lat="44.20643" lon="0.35801">
        <ele>133</ele>
        <time>2025-09-18T08:42:39.504Z</time>
      </trkpt>
      <trkpt lat="44.20609" lon="0.3579">
        <ele>138</ele>
        <time>2025-09-18T08:43:11.504Z</time>
      </trkpt>
      <trkpt lat="44.2058" lon="0.3579">
        <ele>143</ele>
        <time>2025-09-18T08:43:43.504Z</time>
      </trkpt>
      <trkpt lat="44.20569" lon="0.35802">
        <ele>143</ele>
        <time>2025-09-18T08:44:23.504Z</time>
      </trkpt>
      <trkpt lat="44.2056" lon="0.35803">
        <ele>141</ele>
        <time>2025-09-18T08:44:39.504Z</time>
      </trkpt>
      <trkpt lat="44.2054" lon="0.35823">
        <ele>141</ele>
        <time>2025-09-18T08:45:11.504Z</time>
      </trkpt>
      <trkpt lat="44.20472" lon="0.35848">
        <ele>138</ele>
        <time>2025-09-18T08:46:15.504Z</time>
      </trkpt>
      <trkpt lat="44.20452" lon="0.3586">
        <ele>139</ele>
        <time>2025-09-18T08:46:35.504Z</time>
      </trkpt>
      <trkpt lat="44.20432" lon="0.35862">
        <ele>138</ele>
        <time>2025-09-18T08:46:51.504Z</time>
      </trkpt>
      <trkpt lat="44.20416" lon="0.3587">
        <ele>140</ele>
        <time>2025-09-18T08:47:07.504Z</time>
      </trkpt>
      <trkpt lat="44.20407" lon="0.35871">
        <ele>141</ele>
        <time>2025-09-18T08:47:15.504Z</time>
      </trkpt>
      <trkpt lat="44.20394" lon="0.35842">
        <ele>137</ele>
        <time>2025-09-18T08:47:39.504Z</time>
      </trkpt>
      <trkpt lat="44.2038" lon="0.35835">
        <ele>138</ele>
        <time>2025-09-18T08:47:55.504Z</time>
      </trkpt>
      <trkpt lat="44.2034" lon="0.35842">
        <ele>135</ele>
        <time>2025-09-18T08:48:59.504Z</time>
      </trkpt>
      <trkpt lat="44.20337" lon="0.35844">
        <ele>140</ele>
        <time>2025-09-18T08:50:35.504Z</time>
      </trkpt>
      <trkpt lat="44.2031" lon="0.3585">
        <ele>139</ele>
        <time>2025-09-18T08:51:07.504Z</time>
      </trkpt>
      <trkpt lat="44.20292" lon="0.35851">
        <ele>138</ele>
        <time>2025-09-18T08:51:23.504Z</time>
      </trkpt>
      <trkpt lat="44.2029" lon="0.35848">
        <ele>136</ele>
        <time>2025-09-18T08:51:27.504Z</time>
      </trkpt>
      <trkpt lat="44.20267" lon="0.35853">
        <ele>133</ele>
        <time>2025-09-18T08:51:51.504Z</time>
      </trkpt>
      <trkpt lat="44.20251" lon="0.35847">
        <ele>129</ele>
        <time>2025-09-18T08:52:07.504Z</time>
      </trkpt>
      <trkpt lat="44.20232" lon="0.35848">
        <ele>124</ele>
        <time>2025-09-18T08:52:39.504Z</time>
      </trkpt>
      <trkpt lat="44.20226" lon="0.35843">
        <ele>125</ele>
        <time>2025-09-18T08:53:43.504Z</time>
      </trkpt>
      <trkpt lat="44.20194" lon="0.35852">
        <ele>125</ele>
        <time>2025-09-18T08:54:15.504Z</time>
      </trkpt>
      <trkpt lat="44.20048" lon="0.35854">
        <ele>110</ele>
        <time>2025-09-18T08:56:23.504Z</time>
      </trkpt>
      <trkpt lat="44.19968" lon="0.35851">
        <ele>108</ele>
        <time>2025-09-18T08:57:27.504Z</time>
      </trkpt>
      <trkpt lat="44.19959" lon="0.35853">
        <ele>106</ele>
        <time>2025-09-18T08:57:35.504Z</time>
      </trkpt>
      <trkpt lat="44.19941" lon="0.35849">
        <ele>104</ele>
        <time>2025-09-18T08:57:51.504Z</time>
      </trkpt>
      <trkpt lat="44.19922" lon="0.35839">
        <ele>106</ele>
        <time>2025-09-18T08:58:07.504Z</time>
      </trkpt>
      <trkpt lat="44.19865" lon="0.35838">
        <ele>106</ele>
        <time>2025-09-18T08:58:55.504Z</time>
      </trkpt>
      <trkpt lat="44.19826" lon="0.35825">
        <ele>107</ele>
        <time>2025-09-18T08:59:27.504Z</time>
      </trkpt>
      <trkpt lat="44.19809" lon="0.35814">
        <ele>104</ele>
        <time>2025-09-18T08:59:43.504Z</time>
      </trkpt>
      <trkpt lat="44.19737" lon="0.35798">
        <ele>103</ele>
        <time>2025-09-18T09:00:47.504Z</time>
      </trkpt>
      <trkpt lat="44.19719" lon="0.35803">
        <ele>101</ele>
        <time>2025-09-18T09:01:03.504Z</time>
      </trkpt>
      <trkpt lat="44.19641" lon="0.35869">
        <ele>105</ele>
        <time>2025-09-18T09:02:23.504Z</time>
      </trkpt>
      <trkpt lat="44.19574" lon="0.35902">
        <ele>105</ele>
        <time>2025-09-18T09:03:27.504Z</time>
      </trkpt>
      <trkpt lat="44.19559" lon="0.359">
        <ele>98</ele>
        <time>2025-09-18T09:04:31.504Z</time>
      </trkpt>
      <trkpt lat="44.19551" lon="0.35895">
        <ele>99</ele>
        <time>2025-09-18T09:05:35.504Z</time>
      </trkpt>
      <trkpt lat="44.19546" lon="0.35896">
        <ele>97</ele>
        <time>2025-09-18T09:08:15.504Z</time>
      </trkpt>
      <trkpt lat="44.19533" lon="0.35912">
        <ele>97</ele>
        <time>2025-09-18T09:08:31.504Z</time>
      </trkpt>
      <trkpt lat="44.19463" lon="0.35956">
        <ele>98</ele>
        <time>2025-09-18T09:09:35.504Z</time>
      </trkpt>
      <trkpt lat="44.19449" lon="0.35971">
        <ele>98</ele>
        <time>2025-09-18T09:09:51.504Z</time>
      </trkpt>
      <trkpt lat="44.19352" lon="0.36012">
        <ele>97</ele>
        <time>2025-09-18T09:11:11.504Z</time>
      </trkpt>
      <trkpt lat="44.19332" lon="0.36017">
        <ele>95</ele>
        <time>2025-09-18T09:11:27.504Z</time>
      </trkpt>
      <trkpt lat="44.19308" lon="0.36012">
        <ele>96</ele>
        <time>2025-09-18T09:11:43.504Z</time>
      </trkpt>
      <trkpt lat="44.19227" lon="0.35963">
        <ele>94</ele>
        <time>2025-09-18T09:12:47.504Z</time>
      </trkpt>
      <trkpt lat="44.19139" lon="0.35895">
        <ele>88</ele>
        <time>2025-09-18T09:14:11.504Z</time>
      </trkpt>
      <trkpt lat="44.19127" lon="0.35892">
        <ele>89</ele>
        <time>2025-09-18T09:14:19.504Z</time>
      </trkpt>
      <trkpt lat="44.19112" lon="0.3588">
        <ele>92</ele>
        <time>2025-09-18T09:14:35.504Z</time>
      </trkpt>
      <trkpt lat="44.19108" lon="0.35881">
        <ele>90</ele>
        <time>2025-09-18T09:14:43.504Z</time>
      </trkpt>
      <trkpt lat="44.19103" lon="0.35896">
        <ele>90</ele>
        <time>2025-09-18T09:14:59.504Z</time>
      </trkpt>
      <trkpt lat="44.19101" lon="0.35935">
        <ele>89</ele>
        <time>2025-09-18T09:15:31.504Z</time>
      </trkpt>
      <trkpt lat="44.19097" lon="0.35951">
        <ele>90</ele>
        <time>2025-09-18T09:15:47.504Z</time>
      </trkpt>
      <trkpt lat="44.19097" lon="0.35989">
        <ele>98</ele>
        <time>2025-09-18T09:16:19.504Z</time>
      </trkpt>
      <trkpt lat="44.19106" lon="0.3603">
        <ele>99</ele>
        <time>2025-09-18T09:16:51.504Z</time>
      </trkpt>
      <trkpt lat="44.19116" lon="0.36124">
        <ele>113</ele>
        <time>2025-09-18T09:18:27.504Z</time>
      </trkpt>
      <trkpt lat="44.19112" lon="0.36148">
        <ele>121</ele>
        <time>2025-09-18T09:18:59.504Z</time>
      </trkpt>
      <trkpt lat="44.19115" lon="0.36173">
        <ele>121</ele>
        <time>2025-09-18T09:19:15.504Z</time>
      </trkpt>
      <trkpt lat="44.19135" lon="0.36232">
        <ele>126</ele>
        <time>2025-09-18T09:20:35.504Z</time>
      </trkpt>
      <trkpt lat="44.19137" lon="0.36255">
        <ele>127</ele>
        <time>2025-09-18T09:20:51.504Z</time>
      </trkpt>
      <trkpt lat="44.1913" lon="0.36284">
        <ele>133</ele>
        <time>2025-09-18T09:21:55.504Z</time>
      </trkpt>
      <trkpt lat="44.19118" lon="0.36317">
        <ele>136</ele>
        <time>2025-09-18T09:22:59.505Z</time>
      </trkpt>
      <trkpt lat="44.19104" lon="0.3647">
        <ele>131</ele>
        <time>2025-09-18T09:24:35.504Z</time>
      </trkpt>
      <trkpt lat="44.19093" lon="0.36516">
        <ele>133</ele>
        <time>2025-09-18T09:25:07.504Z</time>
      </trkpt>
      <trkpt lat="44.19084" lon="0.36535">
        <ele>134</ele>
        <time>2025-09-18T09:25:23.504Z</time>
      </trkpt>
      <trkpt lat="44.19084" lon="0.3658">
        <ele>140</ele>
        <time>2025-09-18T09:25:55.504Z</time>
      </trkpt>
      <trkpt lat="44.19104" lon="0.36741">
        <ele>150</ele>
        <time>2025-09-18T09:28:03.504Z</time>
      </trkpt>
      <trkpt lat="44.19115" lon="0.36787">
        <ele>144</ele>
        <time>2025-09-18T09:28:35.504Z</time>
      </trkpt>
      <trkpt lat="44.1912" lon="0.36831">
        <ele>142</ele>
        <time>2025-09-18T09:29:07.504Z</time>
      </trkpt>
      <trkpt lat="44.19124" lon="0.37011">
        <ele>127</ele>
        <time>2025-09-18T09:31:07.504Z</time>
      </trkpt>
      <trkpt lat="44.19138" lon="0.37057">
        <ele>126</ele>
        <time>2025-09-18T09:31:39.504Z</time>
      </trkpt>
      <trkpt lat="44.19142" lon="0.37083">
        <ele>120</ele>
        <time>2025-09-18T09:31:55.504Z</time>
      </trkpt>
      <trkpt lat="44.19141" lon="0.37106">
        <ele>118</ele>
        <time>2025-09-18T09:32:11.504Z</time>
      </trkpt>
      <trkpt lat="44.19144" lon="0.3713">
        <ele>116</ele>
        <time>2025-09-18T09:32:43.504Z</time>
      </trkpt>
      <trkpt lat="44.19148" lon="0.37173">
        <ele>115</ele>
        <time>2025-09-18T09:34:27.504Z</time>
      </trkpt>
      <trkpt lat="44.19155" lon="0.372">
        <ele>117</ele>
        <time>2025-09-18T09:34:43.504Z</time>
      </trkpt>
      <trkpt lat="44.19153" lon="0.37224">
        <ele>118</ele>
        <time>2025-09-18T09:34:59.504Z</time>
      </trkpt>
      <trkpt lat="44.19162" lon="0.3725">
        <ele>109</ele>
        <time>2025-09-18T09:35:31.504Z</time>
      </trkpt>
      <trkpt lat="44.19168" lon="0.37305">
        <ele>107</ele>
        <time>2025-09-18T09:36:11.504Z</time>
      </trkpt>
      <trkpt lat="44.19161" lon="0.37333">
        <ele>102</ele>
        <time>2025-09-18T09:36:51.504Z</time>
      </trkpt>
      <trkpt lat="44.1917" lon="0.37352">
        <ele>103</ele>
        <time>2025-09-18T09:37:07.504Z</time>
      </trkpt>
      <trkpt lat="44.19199" lon="0.37476">
        <ele>108</ele>
        <time>2025-09-18T09:38:43.504Z</time>
      </trkpt>
      <trkpt lat="44.19174" lon="0.37504">
        <ele>110</ele>
        <time>2025-09-18T09:40:19.504Z</time>
      </trkpt>
      <trkpt lat="44.19098" lon="0.37572">
        <ele>113</ele>
        <time>2025-09-18T09:41:47.504Z</time>
      </trkpt>
      <trkpt lat="44.1911" lon="0.37556">
        <ele>112</ele>
        <time>2025-09-18T09:42:19.504Z</time>
      </trkpt>
      <trkpt lat="44.19169" lon="0.37505">
        <ele>107</ele>
        <time>2025-09-18T09:43:23.504Z</time>
      </trkpt>
      <trkpt lat="44.192" lon="0.37474">
        <ele>107</ele>
        <time>2025-09-18T09:43:55.504Z</time>
      </trkpt>
      <trkpt lat="44.19204" lon="0.37473">
        <ele>107</ele>
        <time>2025-09-18T09:43:59.504Z</time>
      </trkpt>
      <trkpt lat="44.19214" lon="0.37492">
        <ele>108</ele>
        <time>2025-09-18T09:44:15.504Z</time>
      </trkpt>
      <trkpt lat="44.19213" lon="0.37523">
        <ele>112</ele>
        <time>2025-09-18T09:44:39.504Z</time>
      </trkpt>
      <trkpt lat="44.19199" lon="0.37541">
        <ele>111</ele>
        <time>2025-09-18T09:44:55.504Z</time>
      </trkpt>
      <trkpt lat="44.19195" lon="0.37565">
        <ele>111</ele>
        <time>2025-09-18T09:45:11.504Z</time>
      </trkpt>
      <trkpt lat="44.19199" lon="0.37599">
        <ele>113</ele>
        <time>2025-09-18T09:45:35.504Z</time>
      </trkpt>
      <trkpt lat="44.19199" lon="0.3762">
        <ele>113</ele>
        <time>2025-09-18T09:45:51.504Z</time>
      </trkpt>
      <trkpt lat="44.19209" lon="0.37637">
        <ele>112</ele>
        <time>2025-09-18T09:46:07.504Z</time>
      </trkpt>
      <trkpt lat="44.19213" lon="0.3766">
        <ele>113</ele>
        <time>2025-09-18T09:46:23.504Z</time>
      </trkpt>
      <trkpt lat="44.19222" lon="0.3768">
        <ele>117</ele>
        <time>2025-09-18T09:46:39.504Z</time>
      </trkpt>
      <trkpt lat="44.19226" lon="0.37719">
        <ele>118</ele>
        <time>2025-09-18T09:47:11.504Z</time>
      </trkpt>
      <trkpt lat="44.1922" lon="0.37753">
        <ele>121</ele>
        <time>2025-09-18T09:47:43.504Z</time>
      </trkpt>
      <trkpt lat="44.19222" lon="0.3779">
        <ele>126</ele>
        <time>2025-09-18T09:48:15.504Z</time>
      </trkpt>
      <trkpt lat="44.19237" lon="0.37823">
        <ele>130</ele>
        <time>2025-09-18T09:48:47.504Z</time>
      </trkpt>
      <trkpt lat="44.19242" lon="0.37827">
        <ele>132</ele>
        <time>2025-09-18T09:48:55.504Z</time>
      </trkpt>
      <trkpt lat="44.19245" lon="0.37857">
        <ele>134</ele>
        <time>2025-09-18T09:49:27.504Z</time>
      </trkpt>
      <trkpt lat="44.19243" lon="0.37896">
        <ele>143</ele>
        <time>2025-09-18T09:50:07.504Z</time>
      </trkpt>
      <trkpt lat="44.19272" lon="0.37959">
        <ele>152</ele>
        <time>2025-09-18T09:51:27.504Z</time>
      </trkpt>
      <trkpt lat="44.19269" lon="0.3798">
        <ele>154</ele>
        <time>2025-09-18T09:52:31.504Z</time>
      </trkpt>
      <trkpt lat="44.19263" lon="0.37985">
        <ele>163</ele>
        <time>2025-09-18T09:53:35.504Z</time>
      </trkpt>
      <trkpt lat="44.19261" lon="0.37999">
        <ele>157</ele>
        <time>2025-09-18T09:54:39.504Z</time>
      </trkpt>
      <trkpt lat="44.19244" lon="0.38019">
        <ele>159</ele>
        <time>2025-09-18T09:55:11.504Z</time>
      </trkpt>
      <trkpt lat="44.19214" lon="0.38044">
        <ele>159</ele>
        <time>2025-09-18T09:55:51.504Z</time>
      </trkpt>
      <trkpt lat="44.19215" lon="0.38059">
        <ele>157</ele>
        <time>2025-09-18T09:56:07.504Z</time>
      </trkpt>
      <trkpt lat="44.19363" lon="0.38228">
        <ele>155</ele>
        <time>2025-09-18T09:58:47.504Z</time>
      </trkpt>
      <trkpt lat="44.19446" lon="0.38351">
        <ele>150</ele>
        <time>2025-09-18T10:00:23.504Z</time>
      </trkpt>
      <trkpt lat="44.19474" lon="0.38387">
        <ele>151</ele>
        <time>2025-09-18T10:00:55.504Z</time>
      </trkpt>
      <trkpt lat="44.19504" lon="0.38418">
        <ele>149</ele>
        <time>2025-09-18T10:01:27.504Z</time>
      </trkpt>
      <trkpt lat="44.19511" lon="0.38422">
        <ele>151</ele>
        <time>2025-09-18T10:01:35.504Z</time>
      </trkpt>
      <trkpt lat="44.19547" lon="0.38461">
        <ele>151</ele>
        <time>2025-09-18T10:02:07.504Z</time>
      </trkpt>
      <trkpt lat="44.1957" lon="0.3852">
        <ele>149</ele>
        <time>2025-09-18T10:02:43.504Z</time>
      </trkpt>
      <trkpt lat="44.19574" lon="0.38523">
        <ele>149</ele>
        <time>2025-09-18T10:02:47.504Z</time>
      </trkpt>
      <trkpt lat="44.19637" lon="0.38465">
        <ele>148</ele>
        <time>2025-09-18T10:03:51.504Z</time>
      </trkpt>
      <trkpt lat="44.19737" lon="0.38327">
        <ele>149</ele>
        <time>2025-09-18T10:05:59.504Z</time>
      </trkpt>
      <trkpt lat="44.19739" lon="0.38322">
        <ele>149</ele>
        <time>2025-09-18T10:06:07.504Z</time>
      </trkpt>
      <trkpt lat="44.19766" lon="0.38301">
        <ele>152</ele>
        <time>2025-09-18T10:06:39.504Z</time>
      </trkpt>
      <trkpt lat="44.19784" lon="0.38281">
        <ele>153</ele>
        <time>2025-09-18T10:07:03.504Z</time>
      </trkpt>
      <trkpt lat="44.19785" lon="0.38204">
        <ele>149</ele>
        <time>2025-09-18T10:07:51.504Z</time>
      </trkpt>
      <trkpt lat="44.19802" lon="0.38154">
        <ele>150</ele>
        <time>2025-09-18T10:08:23.504Z</time>
      </trkpt>
      <trkpt lat="44.19835" lon="0.38128">
        <ele>150</ele>
        <time>2025-09-18T10:08:55.504Z</time>
      </trkpt>
      <trkpt lat="44.19851" lon="0.38124">
        <ele>150</ele>
        <time>2025-09-18T10:09:11.504Z</time>
      </trkpt>
      <trkpt lat="44.1991" lon="0.38073">
        <ele>144</ele>
        <time>2025-09-18T10:10:15.504Z</time>
      </trkpt>
      <trkpt lat="44.19925" lon="0.38051">
        <ele>146</ele>
        <time>2025-09-18T10:10:35.504Z</time>
      </trkpt>
      <trkpt lat="44.19947" lon="0.38032">
        <ele>146</ele>
        <time>2025-09-18T10:10:59.504Z</time>
      </trkpt>
      <trkpt lat="44.19948" lon="0.38027">
        <ele>146</ele>
        <time>2025-09-18T10:11:03.504Z</time>
      </trkpt>
      <trkpt lat="44.19962" lon="0.38014">
        <ele>146</ele>
        <time>2025-09-18T10:11:19.504Z</time>
      </trkpt>
      <trkpt lat="44.19976" lon="0.37989">
        <ele>143</ele>
        <time>2025-09-18T10:11:35.504Z</time>
      </trkpt>
      <trkpt lat="44.20013" lon="0.37967">
        <ele>148</ele>
        <time>2025-09-18T10:12:07.504Z</time>
      </trkpt>
      <trkpt lat="44.20022" lon="0.3797">
        <ele>148</ele>
        <time>2025-09-18T10:12:15.504Z</time>
      </trkpt>
      <trkpt lat="44.20054" lon="0.37965">
        <ele>147</ele>
        <time>2025-09-18T10:12:47.504Z</time>
      </trkpt>
      <trkpt lat="44.20071" lon="0.37955">
        <ele>146</ele>
        <time>2025-09-18T10:12:59.504Z</time>
      </trkpt>
      <trkpt lat="44.201" lon="0.37957">
        <ele>146</ele>
        <time>2025-09-18T10:13:23.504Z</time>
      </trkpt>
      <trkpt lat="44.2011" lon="0.37959">
        <ele>144</ele>
        <time>2025-09-18T10:13:47.504Z</time>
      </trkpt>
      <trkpt lat="44.20125" lon="0.37959">
        <ele>140</ele>
        <time>2025-09-18T10:14:03.504Z</time>
      </trkpt>
      <trkpt lat="44.20143" lon="0.37953">
        <ele>139</ele>
        <time>2025-09-18T10:14:27.504Z</time>
      </trkpt>
      <trkpt lat="44.20145" lon="0.37933">
        <ele>150</ele>
        <time>2025-09-18T10:16:03.504Z</time>
      </trkpt>
      <trkpt lat="44.20136" lon="0.37833">
        <ele>127</ele>
        <time>2025-09-18T10:17:23.504Z</time>
      </trkpt>
      <trkpt lat="44.20114" lon="0.37839">
        <ele>129</ele>
        <time>2025-09-18T10:17:55.504Z</time>
      </trkpt>
      <trkpt lat="44.20082" lon="0.37841">
        <ele>135</ele>
        <time>2025-09-18T10:18:31.504Z</time>
      </trkpt>
      <trkpt lat="44.20082" lon="0.37835">
        <ele>133</ele>
        <time>2025-09-18T10:18:39.504Z</time>
      </trkpt>
      <trkpt lat="44.2005" lon="0.3783">
        <ele>135</ele>
        <time>2025-09-18T10:19:11.504Z</time>
      </trkpt>
      <trkpt lat="44.20027" lon="0.37832">
        <ele>135</ele>
        <time>2025-09-18T10:19:27.504Z</time>
      </trkpt>
      <trkpt lat="44.19988" lon="0.37828">
        <ele>133</ele>
        <time>2025-09-18T10:19:59.504Z</time>
      </trkpt>
      <trkpt lat="44.19981" lon="0.37823">
        <ele>130</ele>
        <time>2025-09-18T10:20:07.504Z</time>
      </trkpt>
      <trkpt lat="44.19977" lon="0.37802">
        <ele>124</ele>
        <time>2025-09-18T10:20:23.504Z</time>
      </trkpt>
      <trkpt lat="44.19973" lon="0.37705">
        <ele>113</ele>
        <time>2025-09-18T10:21:27.504Z</time>
      </trkpt>
      <trkpt lat="44.19967" lon="0.37651">
        <ele>108</ele>
        <time>2025-09-18T10:22:15.504Z</time>
      </trkpt>
      <trkpt lat="44.19957" lon="0.37632">
        <ele>110</ele>
        <time>2025-09-18T10:22:31.504Z</time>
      </trkpt>
      <trkpt lat="44.19949" lon="0.37564">
        <ele>127</ele>
        <time>2025-09-18T10:23:23.504Z</time>
      </trkpt>
      <trkpt lat="44.19968" lon="0.37551">
        <ele>120</ele>
        <time>2025-09-18T10:23:43.504Z</time>
      </trkpt>
      <trkpt lat="44.19972" lon="0.37553">
        <ele>117</ele>
        <time>2025-09-18T10:23:51.504Z</time>
      </trkpt>
      <trkpt lat="44.20008" lon="0.37533">
        <ele>116</ele>
        <time>2025-09-18T10:24:23.504Z</time>
      </trkpt>
      <trkpt lat="44.20068" lon="0.37508">
        <ele>116</ele>
        <time>2025-09-18T10:25:11.504Z</time>
      </trkpt>
      <trkpt lat="44.20076" lon="0.37501">
        <ele>116</ele>
        <time>2025-09-18T10:25:19.504Z</time>
      </trkpt>
      <trkpt lat="44.20128" lon="0.3741">
        <ele>113</ele>
        <time>2025-09-18T10:26:23.504Z</time>
      </trkpt>
      <trkpt lat="44.20162" lon="0.37357">
        <ele>110</ele>
        <time>2025-09-18T10:27:27.504Z</time>
      </trkpt>
      <trkpt lat="44.20204" lon="0.37311">
        <ele>103</ele>
        <time>2025-09-18T10:28:15.504Z</time>
      </trkpt>
      <trkpt lat="44.20223" lon="0.37303">
        <ele>98</ele>
        <time>2025-09-18T10:28:47.504Z</time>
      </trkpt>
      <trkpt lat="44.20254" lon="0.37281">
        <ele>99</ele>
        <time>2025-09-18T10:29:19.504Z</time>
      </trkpt>
      <trkpt lat="44.20279" lon="0.37179">
        <ele>93.4</ele>
        <time>2025-09-18T10:29:35.504Z</time>
      </trkpt>
    </trkseg>
  </trk>
</gpx>